createdAt,value
2023-03-23T15:59:31.231Z,17.58
2023-03-23T16:02:14.333Z,17.50
2023-03-23T16:04:52.983Z,17.44
2023-03-23T16:07:30.325Z,17.37
2023-03-23T16:10:09.281Z,17.33
2023-03-23T16:12:45.072Z,17.31
2023-03-23T16:15:21.768Z,17.28
2023-03-23T16:17:56.199Z,17.25
2023-03-23T16:20:39.547Z,17.22
2023-03-23T16:23:20.719Z,17.23
2023-03-23T16:25:56.561Z,17.22
2023-03-23T16:28:35.686Z,17.20
2023-03-23T16:31:11.908Z,17.17
2023-03-23T16:33:47.636Z,17.14
2023-03-23T16:36:22.471Z,17.11
2023-03-23T16:39:00.045Z,17.08
2023-03-23T16:41:38.481Z,17.03
2023-03-23T16:44:19.395Z,16.98
2023-03-23T16:46:57.227Z,16.91
2023-03-23T16:49:32.931Z,16.84
2023-03-23T16:52:08.145Z,16.80
2023-03-23T16:54:55.636Z,16.74
2023-03-23T16:57:32.533Z,16.70
2023-03-23T17:00:14.810Z,16.64
2023-03-23T17:02:49.166Z,16.59
2023-03-23T17:05:23.944Z,16.57
2023-03-23T17:07:57.449Z,16.53
2023-03-23T17:10:31.185Z,16.49
2023-03-23T17:13:18.703Z,16.48
2023-03-23T17:15:54.247Z,16.41
2023-03-23T17:18:29.249Z,16.40
2023-03-23T17:21:02.623Z,16.39
2023-03-23T17:23:36.814Z,16.40
2023-03-23T17:26:09.913Z,16.39
2023-03-23T17:28:45.762Z,16.39
2023-03-23T17:31:19.363Z,16.39
2023-03-23T17:33:53.037Z,16.41
2023-03-23T17:36:26.587Z,16.40
2023-03-23T17:39:02.575Z,16.51
2023-03-23T17:41:37.506Z,16.42
2023-03-23T17:44:12.159Z,16.40
2023-03-23T17:46:45.261Z,16.41
2023-03-23T17:49:20.007Z,16.41
2023-03-23T17:51:53.082Z,16.39
2023-03-23T17:54:29.772Z,16.38
2023-03-23T17:57:04.065Z,16.36
2023-03-23T17:59:40.003Z,16.35
2023-03-23T18:02:16.202Z,16.33
2023-03-23T18:04:50.821Z,16.33
2023-03-23T18:07:26.518Z,16.33
2023-03-23T18:10:01.997Z,16.37
2023-03-23T18:12:37.668Z,16.38
2023-03-23T18:15:13.782Z,16.39
2023-03-23T18:17:51.099Z,16.40
2023-03-23T18:20:24.439Z,16.40
2023-03-23T18:23:02.179Z,16.40
2023-03-23T18:25:37.881Z,16.38
2023-03-23T18:28:13.720Z,16.33
2023-03-23T18:31:01.250Z,16.29
2023-03-23T18:33:37.615Z,16.24
2023-03-23T18:36:18.843Z,16.18
2023-03-23T18:38:52.501Z,16.14
2023-03-23T18:41:29.649Z,16.11
2023-03-23T18:44:02.833Z,16.08
2023-03-23T18:46:37.696Z,16.06
2023-03-23T18:49:10.813Z,16.04
2023-03-23T18:51:43.979Z,16.04
2023-03-23T18:54:17.691Z,16.03
2023-03-23T18:56:54.750Z,16.02
2023-03-23T18:59:34.609Z,16.01
2023-03-23T19:02:11.622Z,15.96
2023-03-23T19:04:45.161Z,15.93
2023-03-23T19:07:19.841Z,15.87
2023-03-23T19:09:53.070Z,15.77
2023-03-23T19:12:26.282Z,15.66
2023-03-23T19:14:59.289Z,15.56
2023-03-23T19:17:33.732Z,15.42
2023-03-23T19:20:14.660Z,15.32
2023-03-23T19:22:53.198Z,15.24
2023-03-23T19:25:27.662Z,15.29
2023-03-23T19:28:49.916Z,15.16
2023-03-23T19:30:55.969Z,15.10
2023-03-23T19:33:30.515Z,15.08
2023-03-23T19:36:10.069Z,15.07
2023-03-23T19:38:44.964Z,15.08
2023-03-23T19:41:19.037Z,15.11
2023-03-23T19:43:56.152Z,15.12
2023-03-23T19:46:30.964Z,15.13
2023-03-23T19:49:06.228Z,15.15
2023-03-23T19:51:39.779Z,15.17
2023-03-23T19:54:13.282Z,15.30
2023-03-23T19:56:47.046Z,15.22
2023-03-23T19:59:20.030Z,15.34
2023-03-23T20:01:54.817Z,15.24
2023-03-23T20:04:29.343Z,15.23
2023-03-23T20:07:02.987Z,15.23
2023-03-23T20:09:38.222Z,15.24
2023-03-23T20:12:11.321Z,15.23
2023-03-23T20:14:45.421Z,15.22
2023-03-23T20:17:18.631Z,15.23
2023-03-23T20:19:53.248Z,15.23
2023-03-23T20:22:26.567Z,15.21
2023-03-23T20:25:00.557Z,15.20
2023-03-23T20:27:33.720Z,15.18
2023-03-23T20:30:10.158Z,15.19
2023-03-23T20:32:46.360Z,15.18
2023-03-23T20:35:22.582Z,15.19
2023-03-23T20:37:55.834Z,15.18
2023-03-23T20:40:29.470Z,15.16
2023-03-23T20:43:03.770Z,15.28
2023-03-23T20:45:36.634Z,15.28
2023-03-23T20:48:09.686Z,15.13
2023-03-23T20:50:44.029Z,15.09
2023-03-23T20:53:17.370Z,15.07
2023-03-23T20:55:53.567Z,15.06
2023-03-23T20:58:27.953Z,15.03
2023-03-23T21:01:03.011Z,15.01
2023-03-23T21:03:42.392Z,15.00
2023-03-23T21:06:16.781Z,14.99
2023-03-23T21:08:52.380Z,15.01
2023-03-23T21:11:27.733Z,15.01
2023-03-23T21:14:00.724Z,15.03
2023-03-23T21:16:33.844Z,15.03
2023-03-23T21:19:07.466Z,15.05
2023-03-23T21:21:55.414Z,15.18
2023-03-23T21:24:31.366Z,15.11
2023-03-23T21:27:04.414Z,15.10
2023-03-23T21:29:38.714Z,15.08
2023-03-23T21:32:11.876Z,15.06
2023-03-23T21:34:47.484Z,15.05
2023-03-23T21:37:22.206Z,15.01
2023-03-23T21:39:55.208Z,14.98
2023-03-23T21:42:31.071Z,14.95
2023-03-23T21:45:04.253Z,14.91
2023-03-23T21:47:38.973Z,14.87
2023-03-23T21:50:13.963Z,14.85
2023-03-23T21:52:50.920Z,14.82
2023-03-23T21:55:25.291Z,14.81
2023-03-23T21:57:58.598Z,14.78
2023-03-23T22:00:32.653Z,14.75
2023-03-23T22:03:06.063Z,14.75
2023-03-23T22:05:41.044Z,14.74
2023-03-23T22:08:15.606Z,14.73
2023-03-23T22:11:01.158Z,14.71
2023-03-23T22:13:37.150Z,14.70
2023-03-23T22:16:14.797Z,14.68
2023-03-23T22:18:52.350Z,14.66
2023-03-23T22:21:27.194Z,14.65
2023-03-23T22:24:04.746Z,14.62
2023-03-23T22:26:37.894Z,14.60
2023-03-23T22:29:11.864Z,14.59
2023-03-23T22:34:19.204Z,14.52
2023-03-23T22:36:52.540Z,14.49
2023-03-23T22:39:27.104Z,14.45
2023-03-23T22:42:00.419Z,14.43
2023-03-23T22:44:33.843Z,14.40
2023-03-23T22:47:07.289Z,14.38
2023-03-23T22:49:40.445Z,14.34
2023-03-23T22:52:14.751Z,14.31
2023-03-23T22:54:49.466Z,14.27
2023-03-23T22:57:22.600Z,14.26
2023-03-23T22:59:55.973Z,14.25
2023-03-23T23:02:29.273Z,14.21
2023-03-23T23:05:02.396Z,14.17
2023-03-23T23:07:36.285Z,14.16
2023-03-23T23:10:11.154Z,14.12
2023-03-23T23:12:45.640Z,14.10
2023-03-23T23:15:19.536Z,14.07
2023-03-23T23:17:55.166Z,14.04
2023-03-23T23:20:28.345Z,14.03
2023-03-23T23:23:02.464Z,14.03
2023-03-23T23:25:40.671Z,13.99
2023-03-23T23:28:14.804Z,13.94
2023-03-23T23:30:49.068Z,13.91
2023-03-23T23:33:22.686Z,13.88
2023-03-23T23:35:56.423Z,13.81
2023-03-23T23:38:29.704Z,13.77
2023-03-23T23:41:07.588Z,13.73
2023-03-23T23:43:41.494Z,13.68
2023-03-23T23:46:14.682Z,13.66
2023-03-23T23:48:48.018Z,13.62
2023-03-23T23:51:21.715Z,13.59
2023-03-23T23:53:54.753Z,13.67
2023-03-23T23:56:29.795Z,13.55
2023-03-23T23:59:02.963Z,13.49
